If you wish to contribute or participate in the discussions about articles you are invited to join SKYbrary as a registered user

 Actions

Leipzig/Halle Airport

From SKYbrary Wiki

EDDP
Airport
ICAO: EDDP – IATA: LEJ
Summary
Name Leipzig/Halle Airport
Region Europe
Territory Germany DE.gif
Location Schkeuditz
Serving Leipzig
Elevation 143.256 m
470 ft
470 ft143.256 m
Coordinates 51° 25' 19.49" N, 12° 13' 13.37" E
Runways
Designator Length Width Surface ROPS
08L/26R 3600 m11,811.024 ft
45 m147.638 ft
CON yes/yes
08R/26L 3600 m11,811.024 ft
60 m196.85 ft
CON yes/yes


METAR
Observation EDDP 202250Z 21005KT 9999 BKN046 08/01 Q1034 NOSIG
Station Leipzig-Schkeuditz
Date/Time 20 March 2019 22:50:00
Wind direction 210°
Wind speed 05 kts
Lowest cloud amount broken clouds
Temperature 8°C
Dew point 1°C
Humidity 61%
QNH 1034 hPa
Weather condition n/a